首页
METAR-TAF:

METAR-TAF

机场 :

Benson, 英格兰

纬度: 51-37N, 经度: 001-05W, 海拔: 63米

当前天气观测

该预报发布于43分钟前的00:50 UTC
风速3节,风向
温度 6°C
湿度 100%
气压 1006 hPa
能见度10公里或以上

METAR: EGUB 170050Z AUTO 18003KT 9999 // FEW070/// 06/06 Q1006

时间: 02:33 (01:33 UTC)

预报

该预报发布于6小时和0分钟前的19:33 UTC
预报有效从16日的 21点(UTC)到 17日的 15点(UTC)
风速4节,风向
能见度10公里或以上
1500米以下无云,无积雨云
几率 40%
从 17日的 02点(UTC)到 17日的 08点(UTC)
能見度: 4000
轻雾
几率 40% :
短暂存在
从 17日的 11点(UTC)到 17日的 15点(UTC)
能見度: 5000
散云层高于1400英尺, 积雨云.
阵雨

TAF: EGUB 161933Z 1621/1715 17004KT CAVOK PROB40 1702/1708 4000 BR PROB40 TEMPO 1711/1715 5000 SHRA SCT014CB

超过4000个机场的气象观测和天气预报(METAR&TAF报告)。

可查询的气象台以黄色和红色小点在地图上表示。

将鼠标移到小点上方,可查看气象台名称。

然后点击查看天气观测和预报。

如需切换地图:点击带黑十字的绿色按钮放大地图;点击带横线的绿色按钮缩小地图;或者点击绿色箭头查看邻近地区的地图。


METAR-TAF: